Time;durP1;ratioP1;P1;durP2;ratioP2;P2;SDS_P1;SDS_P2;PMS_P1;PMS_P2;Temp;Humidity;BMP_temperature;BMP_pressure;BME280_temperature;BME280_humidity;BME280_pressure;Samples;Min_cycle;Max_cycle;Signal;HPM_P1;HPM_P2
2021/06/02 00:00:09;;;;;;;4.13;2.40;;;;;;;18.80;46.29;100024.28;10291406;28;20066;-63
2021/06/02 00:05:11;;;;;;;4.25;2.63;;;;;;;18.68;46.53;100016.59;10287520;28;20124;-64
2021/06/02 00:10:14;;;;;;;2.47;2.28;;;;;;;18.64;46.68;100020.69;10290402;28;20133;-64
2021/06/02 00:15:16;;;;;;;2.65;2.25;;;;;;;18.54;46.91;100012.84;10284789;28;20065;-65
2021/06/02 00:20:18;;;;;;;2.75;2.55;;;;;;;18.49;47.01;100003.63;10283741;28;20126;-65
2021/06/02 00:25:19;;;;;;;3.20;2.10;;;;;;;18.39;47.19;100006.59;10287537;23;20174;-63
2021/06/02 00:30:22;;;;;;;3.08;2.15;;;;;;;18.33;47.62;100002.75;10297652;28;20085;-63
2021/06/02 00:35:25;;;;;;;4.05;2.65;;;;;;;18.28;47.77;99994.34;10279164;28;20419;-63
2021/06/02 00:40:49;;;;;;;4.80;2.83;;;;;;;18.23;47.69;100007.53;10291851;28;20250;-63
2021/06/02 00:45:51;;;;;;;10.23;3.03;;;;;;;18.16;47.57;100009.28;10295190;28;20140;-62
2021/06/02 00:50:52;;;;;;;3.75;2.70;;;;;;;18.16;47.70;100006.56;10291860;28;20191;-63
2021/06/02 00:56:02;;;;;;;3.58;2.42;;;;;;;18.10;48.05;100004.59;10288463;28;20380;-63
2021/06/02 01:01:05;;;;;;;4.30;2.45;;;;;;;18.04;48.31;100003.44;10287682;28;20074;-61
2021/06/02 01:06:08;;;;;;;4.03;2.35;;;;;;;17.98;48.19;100007.69;10291748;28;20151;-62
2021/06/02 01:11:10;;;;;;;3.47;2.70;;;;;;;17.97;48.44;100007.88;10292437;28;20104;-63
2021/06/02 01:16:11;;;;;;;4.40;2.83;;;;;;;17.91;48.22;100006.75;10296221;28;20046;-62
2021/06/02 01:21:21;;;;;;;3.28;2.33;;;;;;;17.85;48.44;100007.44;10295878;28;20274;-62
2021/06/02 01:26:24;;;;;;;2.85;2.20;;;;;;;17.90;48.24;100012.31;10276006;28;20042;-61
2021/06/02 01:31:49;;;;;;;3.38;2.63;;;;;;;17.94;48.49;100025.25;10290840;28;20082;-62
2021/06/02 01:37:10;;;;;;;2.55;2.20;;;;;;;17.92;48.78;100015.66;10287822;28;20108;-62
2021/06/02 01:42:41;;;;;;;4.38;3.05;;;;;;;17.84;48.64;100016.50;10286883;28;20077;-62
2021/06/02 01:48:20;;;;;;;3.65;2.38;;;;;;;17.76;48.93;100017.41;10214784;28;20142;-63
2021/06/02 01:53:46;;;;;;;2.78;2.20;;;;;;;17.74;48.91;100024.78;10291762;28;20137;-62
2021/06/02 01:59:09;;;;;;;2.30;2.10;;;;;;;17.66;49.00;100028.38;10292542;28;20142;-63
2021/06/02 02:04:56;;;;;;;3.85;2.95;;;;;;;17.57;49.14;100021.34;10300828;28;20066;-62
2021/06/02 02:10:05;;;;;;;4.47;2.85;;;;;;;17.52;49.52;100020.19;10222282;28;20070;-63
2021/06/02 02:15:37;;;;;;;4.60;2.60;;;;;;;17.46;49.80;100016.38;10297667;28;20054;-62
2021/06/02 02:20:46;;;;;;;4.30;3.13;;;;;;;17.43;50.40;100022.91;10298827;28;20086;-62
2021/06/02 02:26:07;;;;;;;4.07;2.90;;;;;;;17.46;51.24;100021.75;10288356;28;20653;-63
2021/06/02 02:31:30;;;;;;;3.17;2.80;;;;;;;17.40;51.16;100027.78;10289288;28;20062;-63
2021/06/02 02:36:40;;;;;;;3.33;3.08;;;;;;;17.33;50.86;100035.72;10296469;28;20230;-63
2021/06/02 02:42:06;;;;;;;5.63;2.97;;;;;;;17.25;51.16;100036.59;10289217;28;20447;-63
2021/06/02 02:47:21;;;;;;;3.50;3.00;;;;;;;17.18;51.18;100043.66;10282736;28;20046;-62
2021/06/02 02:52:38;;;;;;;6.85;3.13;;;;;;;17.09;51.38;100042.00;10297276;28;20101;-63
2021/06/02 02:57:49;;;;;;;5.22;2.70;;;;;;;17.05;51.15;100037.97;10302656;28;20201;-63
2021/06/02 03:03:00;;;;;;;3.83;2.80;;;;;;;17.02;51.22;100046.38;10299193;28;20073;-63
2021/06/02 03:08:09;;;;;;;4.95;2.88;;;;;;;16.99;50.90;100041.34;10282539;28;20732;-62
2021/06/02 03:13:27;;;;;;;4.28;2.95;;;;;;;16.94;50.79;100033.81;10299870;28;20062;-63
2021/06/02 03:18:32;;;;;;;3.35;2.95;;;;;;;16.90;50.87;100044.06;10289080;28;20101;-63
2021/06/02 03:24:03;;;;;;;3.35;3.03;;;;;;;16.92;50.89;100049.28;10279148;28;20054;-63
2021/06/02 03:29:13;;;;;;;4.80;3.05;;;;;;;16.89;51.00;100050.44;10272788;28;20042;-64
2021/06/02 03:34:20;;;;;;;4.45;2.90;;;;;;;16.84;51.34;100054.59;10292869;28;20451;-64
2021/06/02 03:39:46;;;;;;;4.40;3.03;;;;;;;16.79;51.15;100052.44;10295820;28;20058;-63
2021/06/02 03:45:09;;;;;;;3.80;3.40;;;;;;;16.79;51.04;100055.94;10290816;28;20800;-62
2021/06/02 03:50:18;;;;;;;4.28;3.53;;;;;;;16.79;50.80;100063.19;10293383;28;20117;-61
2021/06/02 03:55:22;;;;;;;3.92;3.10;;;;;;;16.78;50.45;100061.50;10296565;28;20054;-62
2021/06/02 04:00:35;;;;;;;4.00;3.00;;;;;;;16.79;50.54;100060.50;10287968;28;20827;-63
2021/06/02 04:05:49;;;;;;;4.55;3.33;;;;;;;16.79;50.27;100064.00;10283716;28;20459;-64
2021/06/02 04:11:11;;;;;;;3.67;3.00;;;;;;;16.81;50.21;100065.69;10268522;28;20061;-62
2021/06/02 04:16:22;;;;;;;3.28;2.97;;;;;;;16.83;50.25;100067.22;10288476;28;20142;-63
2021/06/02 04:21:24;;;;;;;3.67;3.00;;;;;;;16.83;50.12;100063.69;10291895;28;20156;-62
2021/06/02 04:26:30;;;;;;;5.78;3.72;;;;;;;16.77;50.56;100059.84;10289653;28;20080;-62
2021/06/02 04:31:32;;;;;;;3.88;3.15;;;;;;;16.78;50.55;100067.72;10280464;28;20141;-62
2021/06/02 04:36:33;;;;;;;3.20;2.90;;;;;;;16.77;50.51;100073.28;10295548;28;20336;-62
2021/06/02 04:41:38;;;;;;;5.53;3.28;;;;;;;16.75;50.86;100088.72;10290740;28;20050;-62
2021/06/02 04:46:40;;;;;;;6.47;3.78;;;;;;;16.72;51.12;100087.22;10288970;28;20125;-62
2021/06/02 04:51:41;;;;;;;6.20;3.47;;;;;;;16.75;51.31;100091.41;10292912;28;20140;-62
2021/06/02 04:57:01;;;;;;;5.32;4.05;;;;;;;16.81;51.02;100092.59;10297146;28;20105;-62
2021/06/02 05:02:24;;;;;;;4.10;3.38;;;;;;;16.87;50.32;100102.69;10278588;28;20057;-62
2021/06/02 05:08:03;;;;;;;5.80;3.63;;;;;;;16.91;50.98;100091.44;10285492;28;20125;-62
2021/06/02 05:13:34;;;;;;;5.18;3.50;;;;;;;16.98;50.58;100098.81;10277041;28;20132;-63
2021/06/02 05:18:45;;;;;;;5.43;3.97;;;;;;;17.10;50.35;100105.56;10257372;28;20121;-62
2021/06/02 05:24:04;;;;;;;6.97;4.00;;;;;;;17.12;50.91;100116.97;10275934;28;20070;-60
2021/06/02 05:29:37;;;;;;;7.88;4.47;;;;;;;17.20;51.01;100125.00;10285640;28;20050;-61
2021/06/02 05:34:57;;;;;;;8.60;4.22;;;;;;;17.34;51.39;100125.34;10293606;28;20054;-63
2021/06/02 05:40:23;;;;;;;5.18;3.50;;;;;;;17.45;49.38;100133.06;10292169;28;20070;-63
2021/06/02 05:46:10;;;;;;;3.90;3.40;;;;;;;17.43;49.01;100121.59;10291676;28;20046;-61
2021/06/02 05:51:14;;;;;;;4.53;3.45;;;;;;;17.55;49.01;100125.66;10292108;28;20425;-67
2021/06/02 05:56:25;;;;;;;4.82;3.10;;;;;;;17.59;49.04;100124.25;10276120;28;20064;-66
2021/06/02 06:01:47;;;;;;;4.32;3.75;;;;;;;17.71;49.63;100122.03;10275150;28;20054;-66
2021/06/02 06:07:01;;;;;;;3.30;3.00;;;;;;;17.96;49.46;100130.91;10276532;28;20065;-66
2021/06/02 06:12:40;;;;;;;4.13;3.10;;;;;;;18.26;48.28;100130.28;10258761;28;20078;-67
2021/06/02 06:18:02;;;;;;;4.65;2.75;;;;;;;18.45;47.61;100137.06;10271246;28;20077;-62
2021/06/02 06:23:42;;;;;;;6.35;3.63;;;;;;;18.57;47.48;100127.56;10276201;28;20058;-61
2021/06/02 06:29:02;;;;;;;4.50;3.15;;;;;;;18.66;46.73;100131.88;10250710;23;20051;-65
2021/06/02 06:34:11;;;;;;;4.75;3.85;;;;;;;18.85;46.57;100135.09;10219632;28;20130;-64
2021/06/02 06:39:29;;;;;;;5.43;3.40;;;;;;;19.06;46.57;100132.59;10194179;28;20126;-65
2021/06/02 06:44:33;;;;;;;4.13;3.03;;;;;;;19.25;46.14;100119.63;10185555;28;20163;-65
2021/06/02 06:49:36;;;;;;;6.55;3.40;;;;;;;19.46;45.71;100124.31;10190899;28;20050;-63
2021/06/02 06:54:40;;;;;;;5.00;2.92;;;;;;;19.60;45.44;100119.94;10185881;28;20086;-64
2021/06/02 06:59:41;;;;;;;4.22;3.00;;;;;;;19.81;44.68;100121.09;10181466;28;20058;-67
2021/06/02 07:04:43;;;;;;;3.30;3.00;;;;;;;19.95;43.74;100133.72;10188747;28;20048;-63
2021/06/02 07:09:45;;;;;;;6.88;2.63;;;;;;;20.02;43.70;100136.53;10189371;28;20143;-63
2021/06/02 07:14:50;;;;;;;2.70;2.35;;;;;;;20.26;43.65;100132.66;10189101;28;20111;-63
2021/06/02 07:19:58;;;;;;;4.53;2.78;;;;;;;20.54;43.57;100140.88;10188828;28;20043;-63
2021/06/02 07:25:00;;;;;;;4.38;2.95;;;;;;;20.54;43.14;100134.66;10187638;28;20240;-63
2021/06/02 07:30:04;;;;;;;4.15;2.97;;;;;;;20.58;42.66;100120.53;10197672;28;20055;-64
2021/06/02 07:35:06;;;;;;;4.13;3.22;;;;;;;20.87;42.01;100139.56;10200858;28;20129;-63
2021/06/02 07:40:08;;;;;;;3.88;2.80;;;;;;;20.98;41.45;100131.75;10200586;28;20207;-62
2021/06/02 07:45:11;;;;;;;4.22;3.10;;;;;;;21.00;41.17;100136.97;10201149;28;22311;-65
2021/06/02 07:50:13;;;;;;;4.82;3.00;;;;;;;21.01;42.17;100136.78;10201377;28;20176;-64
2021/06/02 07:55:14;;;;;;;6.18;3.00;;;;;;;21.39;40.39;100132.91;10201148;28;20560;-64
2021/06/02 08:00:16;;;;;;;2.83;2.45;;;;;;;21.48;40.87;100131.75;10201013;28;20139;-64
2021/06/02 08:05:18;;;;;;;3.70;2.50;;;;;;;21.71;40.26;100126.06;10202620;28;21028;-64
2021/06/02 08:10:19;;;;;;;2.88;2.58;;;;;;;21.79;40.10;100127.78;10203248;28;20202;-64
2021/06/02 08:15:21;;;;;;;4.10;2.47;;;;;;;22.30;39.73;100133.84;10204106;28;20090;-66
2021/06/02 08:20:23;;;;;;;4.70;2.45;;;;;;;22.55;39.24;100132.28;10202447;28;20552;-66
2021/06/02 08:25:24;;;;;;;6.03;2.55;;;;;;;22.59;38.82;100127.25;10201839;28;20133;-64
2021/06/02 08:30:26;;;;;;;3.47;2.22;;;;;;;22.97;38.50;100120.41;10238332;28;20051;-64
2021/06/02 08:35:28;;;;;;;3.25;2.78;;;;;;;23.27;37.69;100129.84;10238523;28;20558;-64
2021/06/02 08:40:29;;;;;;;2.90;2.60;;;;;;;23.25;37.83;100126.50;10239844;28;21504;-67
2021/06/02 08:45:31;;;;;;;3.83;2.47;;;;;;;23.47;36.27;100129.00;10239329;28;20079;-66
2021/06/02 08:50:32;;;;;;;5.70;2.15;;;;;;;23.49;35.22;100126.88;10240814;28;20141;-66
2021/06/02 08:55:34;;;;;;;2.85;1.50;;;;;;;23.65;33.78;100126.44;10238817;28;20130;-66
2021/06/02 09:00:35;;;;;;;2.05;1.88;;;;;;;23.93;33.05;100125.34;10243968;28;20134;-65
2021/06/02 09:05:37;;;;;;;2.28;1.85;;;;;;;24.00;32.13;100119.88;10233434;28;20130;-65
2021/06/02 09:10:42;;;;;;;3.25;1.83;;;;;;;24.39;32.15;100119.91;10250552;28;20482;-66
2021/06/02 09:15:53;;;;;;;4.35;1.75;;;;;;;24.83;29.51;100120.91;10226107;28;20057;-65
2021/06/02 09:20:56;;;;;;;3.65;2.05;;;;;;;25.15;29.10;100116.25;10246600;28;20054;-67
2021/06/02 09:25:57;;;;;;;2.25;2.00;;;;;;;25.29;28.81;100116.97;10248814;28;20055;-67
2021/06/02 09:31:18;;;;;;;2.72;1.33;;;;;;;25.18;29.54;100115.00;10235755;28;20133;-65
2021/06/02 09:36:31;;;;;;;1.73;1.55;;;;;;;25.58;28.98;100106.44;10246257;28;20189;-64
2021/06/02 09:41:42;;;;;;;1.85;1.60;;;;;;;25.84;27.92;100105.31;10244006;28;20555;-65
2021/06/02 09:47:01;;;;;;;3.85;2.42;;;;;;;26.21;27.42;100115.38;10231232;28;20057;-67
2021/06/02 09:52:03;;;;;;;1.92;1.50;;;;;;;26.45;28.05;100105.38;10245548;28;20416;-65
2021/06/02 09:57:14;;;;;;;2.85;1.60;;;;;;;26.88;26.00;100114.44;10246344;28;20177;-67
2021/06/02 10:02:16;;;;;;;4.65;1.38;;;;;;;26.94;26.02;100114.31;10246379;28;20130;-65
2021/06/02 10:07:21;;;;;;;3.42;1.48;;;;;;;27.05;26.06;100104.47;10247435;28;20499;-65
2021/06/02 10:12:23;;;;;;;2.70;1.70;;;;;;;27.31;25.79;100105.09;10243999;28;20776;-66
2021/06/02 10:17:38;;;;;;;3.60;1.60;;;;;;;27.68;25.50;100111.16;10245844;28;20051;-65
2021/06/02 10:22:41;;;;;;;2.83;1.38;;;;;;;27.45;25.26;100103.78;10245582;28;20058;-65
2021/06/02 10:27:43;;;;;;;2.58;1.55;;;;;;;27.49;25.54;100110.47;10244381;28;20070;-64
2021/06/02 10:32:44;;;;;;;2.22;1.83;;;;;;;27.82;24.61;100111.72;10243050;28;20074;-69
2021/06/02 10:37:46;;;;;;;3.15;1.30;;;;;;;28.05;24.90;100107.28;10245512;28;20078;-65
2021/06/02 10:42:51;;;;;;;2.60;1.42;;;;;;;28.44;24.08;100115.69;10245871;28;20484;-66
2021/06/02 10:47:56;;;;;;;2.13;1.58;;;;;;;28.67;23.75;100119.41;10244877;28;20183;-65
2021/06/02 10:52:59;;;;;;;1.77;1.58;;;;;;;28.72;24.29;100111.31;10242035;28;20693;-65
2021/06/02 10:58:25;;;;;;;2.55;1.60;;;;;;;28.72;24.22;100116.78;10243401;28;20070;-64
2021/06/02 11:03:28;;;;;;;4.85;1.48;;;;;;;28.84;23.81;100120.28;10242466;28;20943;-65
2021/06/02 11:08:48;;;;;;;1.60;1.10;;;;;;;28.61;24.13;100106.72;10245256;28;20094;-65
2021/06/02 11:14:14;;;;;;;3.17;1.40;;;;;;;28.79;24.21;100101.00;10226986;28;20137;-65
2021/06/02 11:19:21;;;;;;;3.25;1.55;;;;;;;28.77;23.20;100108.63;10242705;28;20054;-66
2021/06/02 11:24:32;;;;;;;2.75;1.58;;;;;;;28.60;23.40;100113.25;10240812;28;20088;-65
2021/06/02 11:29:34;;;;;;;3.00;1.30;;;;;;;28.52;22.59;100107.06;10241403;28;20825;-65
2021/06/02 11:34:35;;;;;;;1.70;0.87;;;;;;;28.74;21.88;100111.88;10239841;28;21789;-67
2021/06/02 11:39:38;;;;;;;2.75;1.40;;;;;;;28.81;23.24;100101.59;10242498;28;20046;-65
2021/06/02 11:44:40;;;;;;;1.58;1.08;;;;;;;28.97;20.58;100104.59;10242143;28;20130;-64
2021/06/02 11:49:43;;;;;;;1.70;1.10;;;;;;;28.78;21.61;100107.56;10241671;28;20138;-64
2021/06/02 11:55:14;;;;;;;1.52;1.30;;;;;;;28.98;21.72;100109.81;10237171;28;20138;-65
2021/06/02 12:00:19;;;;;;;3.15;1.20;;;;;;;28.86;22.50;100104.41;10233176;28;20035;-65
2021/06/02 12:05:26;;;;;;;1.52;1.30;;;;;;;28.68;23.00;100099.19;10239764;28;20057;-65
2021/06/02 12:10:42;;;;;;;2.05;1.30;;;;;;;28.78;21.81;100099.34;10238868;28;20069;-66
2021/06/02 12:15:53;;;;;;;3.38;1.10;;;;;;;28.75;21.93;100088.91;10239228;28;20057;-69
2021/06/02 12:21:13;;;;;;;3.72;1.27;;;;;;;28.67;21.91;100094.78;10238097;28;20050;-65
2021/06/02 12:26:20;;;;;;;1.92;1.50;;;;;;;28.52;22.39;100101.59;10237436;28;20133;-65
2021/06/02 12:31:45;;;;;;;1.27;1.15;;;;;;;28.72;22.23;100097.63;10240413;23;20125;-65
2021/06/02 12:36:51;;;;;;;3.33;1.23;;;;;;;28.62;22.17;100091.97;10236085;28;21265;-64
2021/06/02 12:41:54;;;;;;;1.65;1.35;;;;;;;28.63;23.31;100093.59;10210006;28;20062;-63
2021/06/02 12:47:07;;;;;;;1.67;1.17;;;;;;;28.65;23.17;100089.53;10210034;28;20055;-63
2021/06/02 12:52:10;;;;;;;1.90;1.40;;;;;;;28.74;23.25;100095.44;10216481;28;20055;-65
2021/06/02 12:57:11;;;;;;;3.08;1.35;;;;;;;28.76;22.96;100090.53;10215286;28;20134;-63
2021/06/02 13:02:13;;;;;;;3.55;1.17;;;;;;;28.83;23.30;100099.44;10222606;28;20604;-64
2021/06/02 13:07:33;;;;;;;1.90;1.20;;;;;;;28.72;23.88;100084.75;10213930;28;20075;-65
2021/06/02 13:12:49;;;;;;;1.63;1.52;;;;;;;28.72;23.40;100100.34;10215262;28;20126;-65
2021/06/02 13:17:51;;;;;;;1.65;1.23;;;;;;;28.64;23.57;100087.88;10213976;28;20633;-65
2021/06/02 13:23:07;;;;;;;1.40;1.10;;;;;;;28.61;23.90;100082.06;10217410;28;20121;-62
2021/06/02 13:28:09;;;;;;;2.88;1.25;;;;;;;28.54;23.77;100088.50;10215859;28;20059;-62
2021/06/02 13:33:13;;;;;;;1.80;1.23;;;;;;;28.54;23.22;100083.03;10211903;28;20102;-62
2021/06/02 13:38:25;;;;;;;1.55;1.20;;;;;;;28.44;23.92;100087.50;10215654;28;20054;-66
2021/06/02 13:43:27;;;;;;;1.63;1.20;;;;;;;28.38;22.92;100090.13;10212957;28;20490;-62
2021/06/02 13:48:37;;;;;;;1.90;1.10;;;;;;;28.25;23.05;100079.47;10202773;28;20047;-63
2021/06/02 13:53:58;;;;;;;1.95;1.23;;;;;;;28.18;23.77;100082.38;10212537;28;20134;-62
2021/06/02 13:59:11;;;;;;;2.45;1.25;;;;;;;28.13;23.75;100079.53;10216040;28;20680;-66
2021/06/02 14:04:17;;;;;;;1.85;1.33;;;;;;;28.04;24.01;100075.53;10198968;28;20141;-63
2021/06/02 14:09:18;;;;;;;3.03;1.35;;;;;;;28.01;24.05;100065.06;10200783;28;20055;-63
2021/06/02 14:14:21;;;;;;;2.13;1.20;;;;;;;27.72;22.90;100075.13;10218215;28;20165;-64
2021/06/02 14:19:23;;;;;;;5.22;1.20;;;;;;;27.67;23.28;100070.38;10213683;28;20159;-64
2021/06/02 14:24:27;;;;;;;1.42;1.00;;;;;;;27.70;24.26;100072.63;10211439;28;20271;-62
2021/06/02 14:29:31;;;;;;;1.55;1.20;;;;;;;27.69;24.15;100071.78;10213738;28;20055;-63
2021/06/02 14:34:34;;;;;;;2.05;1.08;;;;;;;27.54;23.73;100062.44;10197692;28;20119;-60
2021/06/02 14:39:35;;;;;;;3.63;1.55;;;;;;;27.40;23.25;100061.84;10211653;28;20163;-64
2021/06/02 14:44:37;;;;;;;3.50;1.38;;;;;;;27.37;23.78;100057.72;10217534;28;20453;-65
2021/06/02 14:49:39;;;;;;;1.60;1.50;;;;;;;27.42;24.10;100060.56;10211584;28;20063;-61
2021/06/02 14:54:40;;;;;;;1.67;1.40;;;;;;;27.39;24.60;100063.75;10214797;28;20403;-64
2021/06/02 14:59:41;;;;;;;3.10;1.20;;;;;;;27.33;24.56;100057.34;10196769;28;20532;-63
2021/06/02 15:04:43;;;;;;;1.77;1.05;;;;;;;27.32;24.69;100057.56;10215477;28;20193;-61
2021/06/02 15:09:44;;;;;;;1.67;1.10;;;;;;;27.28;24.41;100062.69;10216237;28;20057;-64
2021/06/02 15:14:46;;;;;;;1.52;1.33;;;;;;;27.21;25.03;100052.94;10217698;28;20055;-63
2021/06/02 15:19:48;;;;;;;1.50;1.00;;;;;;;27.18;24.84;100046.06;10211970;28;20043;-62
2021/06/02 15:24:50;;;;;;;3.23;1.13;;;;;;;27.14;24.62;100040.25;10198033;28;20147;-66
2021/06/02 15:29:53;;;;;;;1.30;1.15;;;;;;;27.14;24.49;100034.78;10209287;28;20103;-63
2021/06/02 15:35:00;;;;;;;2.05;1.13;;;;;;;27.09;24.12;100040.09;10207582;28;20094;-65
2021/06/02 15:40:10;;;;;;;1.55;1.13;;;;;;;27.05;24.36;100022.53;10185086;28;20083;-64
2021/06/02 15:45:14;;;;;;;1.38;0.93;;;;;;;27.00;22.97;100027.88;10190108;28;20102;-65
2021/06/02 15:50:16;;;;;;;2.38;1.30;;;;;;;26.97;24.13;100031.09;10212360;28;20459;-62
2021/06/02 15:55:26;;;;;;;1.20;1.10;;;;;;;27.01;24.09;100031.44;10198979;28;20099;-65
2021/06/02 16:00:27;;;;;;;1.25;1.13;;;;;;;26.99;23.97;100023.47;10212897;28;20658;-65
2021/06/02 16:05:29;;;;;;;2.13;0.90;;;;;;;26.97;23.42;100022.91;10215100;28;20079;-63
2021/06/02 16:10:31;;;;;;;2.70;1.20;;;;;;;26.97;23.14;100014.72;10215735;28;20167;-64
2021/06/02 16:15:33;;;;;;;1.65;1.00;;;;;;;26.97;23.92;100010.06;10212340;28;20651;-65
2021/06/02 16:20:34;;;;;;;2.65;1.10;;;;;;;26.91;23.99;100021.94;10192548;28;20064;-63
2021/06/02 16:25:36;;;;;;;2.13;1.50;;;;;;;26.83;24.34;100010.53;10206370;28;20191;-64
2021/06/02 16:30:38;;;;;;;1.90;0.90;;;;;;;26.93;24.48;100018.97;10201424;28;20163;-62
2021/06/02 16:35:41;;;;;;;3.88;2.00;;;;;;;26.86;23.93;100029.19;10197865;28;20062;-65
2021/06/02 16:40:43;;;;;;;3.42;1.20;;;;;;;26.78;23.38;100022.16;10206982;28;20067;-64
2021/06/02 16:45:44;;;;;;;1.30;0.90;;;;;;;26.79;23.91;100023.84;10197895;28;20127;-62
2021/06/02 16:50:51;;;;;;;2.63;1.10;;;;;;;26.79;23.30;100032.84;10192053;28;20119;-62
2021/06/02 16:55:54;;;;;;;2.47;1.35;;;;;;;26.78;23.78;100025.75;10205126;28;20050;-62
2021/06/02 17:00:56;;;;;;;1.25;0.90;;;;;;;26.78;23.84;100031.22;10193476;28;20077;-61
2021/06/02 17:05:57;;;;;;;1.63;0.98;;;;;;;26.74;24.51;100032.75;10201203;28;20051;-65
2021/06/02 17:10:59;;;;;;;1.55;0.88;;;;;;;26.63;23.87;100036.25;10205622;28;20055;-65
2021/06/02 17:16:10;;;;;;;1.45;1.05;;;;;;;26.58;24.18;100038.84;10206995;28;20079;-63
2021/06/02 17:21:20;;;;;;;3.78;1.48;;;;;;;26.54;24.71;100040.38;10206754;28;20055;-65
2021/06/02 17:26:25;;;;;;;1.70;1.25;;;;;;;26.49;24.34;100040.28;10214602;28;20047;-61
2021/06/02 17:31:28;;;;;;;1.70;0.95;;;;;;;26.40;24.08;100045.22;10221453;28;20106;-62
2021/06/02 17:36:30;;;;;;;1.70;1.20;;;;;;;26.43;24.07;100047.50;10216152;28;20062;-59
2021/06/02 17:41:35;;;;;;;3.03;1.83;;;;;;;26.40;24.52;100047.94;10216363;28;20055;-59
2021/06/02 17:46:39;;;;;;;1.90;1.25;;;;;;;26.33;24.12;100052.66;10208970;28;20062;-58
2021/06/02 17:51:43;;;;;;;2.90;1.33;;;;;;;26.23;24.12;100058.72;10218441;28;20078;-59
2021/06/02 17:56:56;;;;;;;1.55;1.13;;;;;;;26.16;24.52;100057.97;10213891;28;20149;-58
2021/06/02 18:01:58;;;;;;;1.52;0.90;;;;;;;26.10;24.87;100066.00;10212335;28;20137;-58
2021/06/02 18:07:00;;;;;;;2.28;1.10;;;;;;;26.05;25.08;100056.84;10219846;28;20058;-64
2021/06/02 18:12:01;;;;;;;2.90;1.45;;;;;;;25.99;25.66;100064.06;10215548;28;20118;-58
2021/06/02 18:17:09;;;;;;;4.15;2.80;;;;;;;25.93;25.32;100073.13;10198634;28;20178;-59
2021/06/02 18:22:20;;;;;;;1.48;1.05;;;;;;;25.82;25.62;100085.63;10210282;28;20166;-59
2021/06/02 18:27:25;;;;;;;1.30;1.10;;;;;;;25.74;25.71;100086.75;10217705;28;20118;-58
2021/06/02 18:32:27;;;;;;;2.50;1.10;;;;;;;25.65;25.34;100104.47;10199433;23;20146;-59
2021/06/02 18:37:28;;;;;;;4.80;1.15;;;;;;;25.56;25.88;100109.38;10187546;28;20142;-60
2021/06/02 18:42:32;;;;;;;2.20;1.20;;;;;;;25.50;26.72;100114.91;10160167;29;20055;-60
2021/06/02 18:47:35;;;;;;;1.75;1.20;;;;;;;25.43;26.28;100125.03;10162258;29;20075;-61
2021/06/02 18:52:38;;;;;;;1.85;1.20;;;;;;;25.37;26.76;100126.78;10153301;29;20130;-58
2021/06/02 18:57:40;;;;;;;1.23;1.10;;;;;;;25.29;26.84;100124.31;10163027;29;20135;-61
2021/06/02 19:02:42;;;;;;;3.30;2.50;;;;;;;25.21;27.02;100122.72;10164836;29;20052;-58
2021/06/02 19:07:43;;;;;;;1.77;1.27;;;;;;;25.15;26.81;100129.88;10163478;29;20062;-59
2021/06/02 19:12:45;;;;;;;2.00;1.30;;;;;;;25.11;27.77;100136.00;10160273;29;20208;-58
2021/06/02 19:17:46;;;;;;;1.90;1.42;;;;;;;25.01;26.63;100145.50;10163857;29;20606;-58
2021/06/02 19:22:48;;;;;;;2.25;1.45;;;;;;;24.96;27.45;100158.09;10151745;29;20056;-58
2021/06/02 19:27:50;;;;;;;3.22;1.40;;;;;;;24.86;26.61;100162.16;10162870;29;20138;-59
2021/06/02 19:32:56;;;;;;;3.22;1.45;;;;;;;24.80;27.54;100164.91;10143049;29;20150;-60
2021/06/02 19:37:57;;;;;;;2.97;1.60;;;;;;;24.73;27.47;100184.00;10156164;29;20066;-62
2021/06/02 19:43:01;;;;;;;4.30;1.95;;;;;;;24.66;27.75;100191.38;10160906;29;20187;-58
2021/06/02 19:48:02;;;;;;;3.70;2.03;;;;;;;24.59;28.12;100202.31;10151462;29;20971;-60
2021/06/02 19:53:04;;;;;;;4.95;2.55;;;;;;;24.54;28.49;100215.69;10159749;29;20789;-59
2021/06/02 19:58:05;;;;;;;5.25;2.75;;;;;;;24.41;29.71;100215.72;10158396;29;20501;-64
2021/06/02 20:03:07;;;;;;;5.20;3.25;;;;;;;24.36;29.90;100221.81;10158794;29;20055;-65
2021/06/02 20:08:12;;;;;;;3.75;3.42;;;;;;;24.24;30.85;100237.97;10169650;29;20072;-63
2021/06/02 20:13:14;;;;;;;5.40;3.38;;;;;;;24.14;31.98;100248.44;10163904;28;20126;-63
2021/06/02 20:18:17;;;;;;;5.13;3.83;;;;;;;24.04;31.49;100256.25;10169526;29;20497;-66
2021/06/02 20:23:20;;;;;;;6.10;3.53;;;;;;;23.95;30.97;100255.63;10175398;29;20417;-64
2021/06/02 20:28:33;;;;;;;7.45;4.53;;;;;;;23.86;31.41;100260.44;10160725;29;20059;-65
2021/06/02 20:33:36;;;;;;;2.95;2.67;;;;;;;23.78;32.21;100263.31;10175135;29;20062;-65
2021/06/02 20:38:37;;;;;;;4.70;3.77;;;;;;;23.69;31.91;100262.72;10159737;29;20040;-64
2021/06/02 20:43:39;;;;;;;4.82;4.03;;;;;;;23.64;32.08;100274.22;10172551;29;20052;-63
2021/06/02 20:48:40;;;;;;;5.07;3.80;;;;;;;23.60;32.95;100270.25;10171170;29;20549;-63
2021/06/02 20:53:42;;;;;;;8.68;6.68;;;;;;;23.55;34.30;100283.59;10173275;29;20071;-64
2021/06/02 20:58:44;;;;;;;6.40;5.75;;;;;;;23.51;33.11;100290.50;10179200;29;20402;-65
2021/06/02 21:03:45;;;;;;;6.85;5.40;;;;;;;23.42;33.25;100280.88;10179739;29;20155;-63
2021/06/02 21:08:47;;;;;;;4.60;4.20;;;;;;;23.35;34.40;100282.78;10179881;29;20071;-63
2021/06/02 21:13:48;;;;;;;4.57;4.00;;;;;;;23.29;33.77;100295.28;10181258;29;20075;-65
2021/06/02 21:18:50;;;;;;;5.20;4.43;;;;;;;23.26;33.14;100314.72;10169906;29;20123;-63
2021/06/02 21:23:51;;;;;;;9.13;4.93;;;;;;;23.10;33.32;100313.19;10183650;29;20075;-63
2021/06/02 21:28:53;;;;;;;4.28;3.22;;;;;;;23.12;32.39;100322.00;10177555;29;20131;-62
2021/06/02 21:33:54;;;;;;;3.10;2.28;;;;;;;23.05;32.80;100321.09;10168896;28;20178;-63
2021/06/02 21:38:56;;;;;;;5.38;2.85;;;;;;;23.07;33.68;100330.69;10185024;28;20090;-62
2021/06/02 21:43:57;;;;;;;3.92;2.60;;;;;;;23.03;34.32;100336.72;10181615;29;20122;-65
2021/06/02 21:48:59;;;;;;;5.38;3.22;;;;;;;22.97;35.76;100340.25;10183576;29;20490;-64
2021/06/02 21:54:01;;;;;;;4.35;2.40;;;;;;;22.94;37.04;100345.06;10183486;28;20134;-63
2021/06/02 21:59:07;;;;;;;6.33;3.17;;;;;;;22.58;37.99;100338.00;10176368;28;20075;-62
2021/06/02 22:04:09;;;;;;;2.75;2.20;;;;;;;22.59;38.08;100339.69;10180921;28;20053;-63
2021/06/02 22:09:10;;;;;;;3.97;2.45;;;;;;;22.55;38.92;100351.16;10179747;28;20067;-65
2021/06/02 22:14:12;;;;;;;4.63;3.10;;;;;;;22.61;39.73;100342.22;10177839;28;20078;-63
2021/06/02 22:19:13;;;;;;;5.20;3.10;;;;;;;22.53;39.65;100350.50;10180492;29;20137;-65
2021/06/02 22:24:14;;;;;;;4.57;2.38;;;;;;;22.49;39.84;100352.78;10177316;28;21517;-64
2021/06/02 22:29:16;;;;;;;3.67;2.72;;;;;;;22.49;40.22;100347.34;10180992;28;20576;-65
2021/06/02 22:34:17;;;;;;;2.97;2.40;;;;;;;22.50;40.94;100354.44;10179554;29;20486;-64
2021/06/02 22:39:19;;;;;;;2.38;2.17;;;;;;;22.49;40.09;100352.78;10179524;29;20110;-64
2021/06/02 22:44:20;;;;;;;2.35;2.05;;;;;;;22.48;41.11;100353.81;10163265;29;20081;-64
2021/06/02 22:49:21;;;;;;;4.93;2.25;;;;;;;22.45;42.13;100346.06;10180033;29;20059;-65
2021/06/02 22:54:23;;;;;;;3.30;2.70;;;;;;;22.44;42.23;100344.38;10178921;29;20131;-65
2021/06/02 22:59:26;;;;;;;3.22;2.42;;;;;;;22.35;42.14;100342.88;10177897;29;20052;-65
2021/06/02 23:04:27;;;;;;;2.92;2.25;;;;;;;22.39;42.62;100339.56;10160790;29;20119;-63
2021/06/02 23:09:29;;;;;;;2.83;2.22;;;;;;;22.36;42.85;100334.53;10178110;29;20075;-65
2021/06/02 23:14:30;;;;;;;2.78;2.05;;;;;;;22.36;43.10;100336.44;10177972;29;20134;-63
2021/06/02 23:19:32;;;;;;;2.35;1.90;;;;;;;22.34;43.38;100335.75;10176600;29;20521;-64
2021/06/02 23:24:33;;;;;;;2.40;2.13;;;;;;;22.27;43.26;100337.59;10177454;29;20154;-63
2021/06/02 23:29:35;;;;;;;2.42;2.17;;;;;;;22.15;43.29;100338.13;10176924;29;20075;-65